createdAt,value
2017-10-12T00:02:14.667Z,2.43
2017-10-12T00:04:42.334Z,2.63
2017-10-12T00:07:10.773Z,2.40
2017-10-12T00:09:38.377Z,2.60
2017-10-12T00:12:06.125Z,2.53
2017-10-12T00:14:33.712Z,2.33
2017-10-12T00:17:02.217Z,2.90
2017-10-12T00:19:29.745Z,3.10
2017-10-12T00:21:57.306Z,3.00
2017-10-12T00:24:25.613Z,2.20
2017-10-12T00:26:53.882Z,2.50
2017-10-12T00:29:21.512Z,3.00
2017-10-12T00:31:49.665Z,2.50
2017-10-12T00:34:17.612Z,2.80
2017-10-12T00:36:56.858Z,2.37
2017-10-12T00:42:14.088Z,3.17
2017-10-12T00:44:41.900Z,3.03
2017-10-12T00:47:09.498Z,2.57
2017-10-12T00:49:37.075Z,2.53
2017-10-12T00:52:05.431Z,3.27
2017-10-12T00:54:33.306Z,2.47
2017-10-12T00:57:00.865Z,2.60
2017-10-12T00:59:28.463Z,2.60
2017-10-12T01:01:56.113Z,3.00
2017-10-12T01:04:24.454Z,3.07
2017-10-12T01:06:54.884Z,2.57
2017-10-12T01:09:23.667Z,3.03
2017-10-12T01:11:52.370Z,2.80
2017-10-12T01:14:20.679Z,3.80
2017-10-12T01:16:48.410Z,2.77
2017-10-12T01:19:15.930Z,3.60
2017-10-12T01:21:43.449Z,2.93
2017-10-12T01:24:10.988Z,2.97
2017-10-12T01:26:39.294Z,2.37
2017-10-12T01:29:06.830Z,2.33
2017-10-12T01:31:34.337Z,2.60
2017-10-12T01:34:01.875Z,2.43
2017-10-12T01:36:29.392Z,2.60
2017-10-12T01:38:56.952Z,2.40
2017-10-12T01:41:24.454Z,2.70
2017-10-12T01:43:51.952Z,2.83
2017-10-12T01:46:19.496Z,2.23
2017-10-12T01:48:55.740Z,2.47
2017-10-12T01:51:23.289Z,2.63
2017-10-12T01:53:50.800Z,2.37
2017-10-12T01:56:18.333Z,2.40
2017-10-12T01:58:46.633Z,2.53
2017-10-12T02:01:14.967Z,2.73
2017-10-12T02:03:42.472Z,2.40
2017-10-12T02:06:10.003Z,2.43
2017-10-12T02:08:37.514Z,2.70
2017-10-12T02:11:05.052Z,2.40
2017-10-12T02:13:32.554Z,2.87
2017-10-12T02:16:00.090Z,3.20
2017-10-12T02:18:27.586Z,2.97
2017-10-12T02:20:55.163Z,2.43
2017-10-12T02:23:22.661Z,1.90
2017-10-12T02:25:52.654Z,2.40
2017-10-12T02:28:20.189Z,2.13
2017-10-12T02:30:47.690Z,2.40
2017-10-12T02:33:15.215Z,2.17
2017-10-12T02:35:43.480Z,2.47
2017-10-12T02:38:11.017Z,2.17
2017-10-12T02:40:38.552Z,3.87
2017-10-12T02:43:06.846Z,2.17
2017-10-12T02:45:34.339Z,2.30
2017-10-12T02:48:01.887Z,2.30
2017-10-12T02:50:29.395Z,2.87
2017-10-12T02:52:56.978Z,2.13
2017-10-12T02:55:24.477Z,2.43
2017-10-12T02:57:52.116Z,2.40
2017-10-12T03:00:19.618Z,2.50
2017-10-12T03:02:47.174Z,2.40
2017-10-12T03:05:14.709Z,2.30
2017-10-12T03:07:42.207Z,2.90
2017-10-12T03:10:09.741Z,2.47
2017-10-12T03:12:37.242Z,2.03
2017-10-12T03:15:04.966Z,2.40
2017-10-12T03:17:33.227Z,2.50
2017-10-12T03:20:00.761Z,2.27
2017-10-12T03:22:28.534Z,2.23
2017-10-12T03:24:56.062Z,2.27
2017-10-12T03:27:23.557Z,2.80
2017-10-12T03:29:51.972Z,2.03
2017-10-12T03:32:19.525Z,2.40
2017-10-12T03:34:47.833Z,2.50
2017-10-12T03:37:15.598Z,2.53
2017-10-12T03:39:43.093Z,2.27
2017-10-12T03:42:10.617Z,2.73
2017-10-12T03:44:38.886Z,2.40
2017-10-12T03:47:06.418Z,2.20
2017-10-12T03:49:33.925Z,2.53
2017-10-12T03:52:01.466Z,3.07
2017-10-12T03:54:28.972Z,2.50
2017-10-12T03:56:56.590Z,2.77
2017-10-12T03:59:24.089Z,2.23
2017-10-12T04:01:51.618Z,2.63
2017-10-12T04:04:19.111Z,2.77
2017-10-12T04:06:46.663Z,2.80
2017-10-12T04:09:14.937Z,2.60
2017-10-12T04:11:42.429Z,2.67
2017-10-12T04:14:10.726Z,2.37
2017-10-12T04:16:38.226Z,2.70
2017-10-12T04:19:05.781Z,2.83
2017-10-12T04:21:33.277Z,2.40
2017-10-12T04:24:00.907Z,2.60
2017-10-12T04:26:28.401Z,2.87
2017-10-12T04:28:55.936Z,2.57
2017-10-12T04:31:23.474Z,2.83
2017-10-12T04:33:51.067Z,3.37
2017-10-12T04:36:18.614Z,2.00
2017-10-12T04:38:46.121Z,3.13
2017-10-12T04:41:13.666Z,2.67
2017-10-12T04:43:41.179Z,2.50
2017-10-12T04:46:08.734Z,2.50
2017-10-12T04:48:37.018Z,2.20
2017-10-12T04:51:04.558Z,2.20
2017-10-12T04:53:32.062Z,2.47
2017-10-12T04:55:59.599Z,2.00
2017-10-12T04:58:27.102Z,2.47
2017-10-12T05:00:55.517Z,2.17
2017-10-12T05:03:23.787Z,1.90
2017-10-12T05:05:51.298Z,2.80
2017-10-12T05:08:18.853Z,2.80
2017-10-12T05:10:47.115Z,1.77
2017-10-12T05:13:14.650Z,2.17
2017-10-12T05:15:42.510Z,2.13
2017-10-12T05:18:10.076Z,2.87
2017-10-12T05:20:37.593Z,2.93
2017-10-12T05:23:05.135Z,2.43
2017-10-12T05:25:32.648Z,2.00
2017-10-12T05:28:00.490Z,2.33
2017-10-12T05:30:27.980Z,2.00
2017-10-12T05:32:55.478Z,2.43
2017-10-12T05:35:23.017Z,2.33
2017-10-12T05:37:51.089Z,2.23
2017-10-12T05:40:18.646Z,2.20
2017-10-12T05:42:46.152Z,2.03
2017-10-12T05:45:13.681Z,2.30
2017-10-12T05:47:41.168Z,2.60
2017-10-12T05:50:08.693Z,2.10
2017-10-12T05:52:36.216Z,2.70
2017-10-12T05:55:03.763Z,2.30
2017-10-12T05:57:31.610Z,2.37
2017-10-12T05:59:59.108Z,2.17
2017-10-12T06:02:26.647Z,1.93
2017-10-12T06:04:54.142Z,1.80
2017-10-12T06:07:22.437Z,1.90
2017-10-12T06:09:50.746Z,2.10
2017-10-12T06:12:18.286Z,2.37
2017-10-12T06:14:45.833Z,2.27
2017-10-12T06:17:13.435Z,2.40
2017-10-12T06:19:41.749Z,2.73
2017-10-12T06:22:09.345Z,2.30
2017-10-12T06:24:36.895Z,2.43
2017-10-12T06:27:04.441Z,2.47
2017-10-12T06:29:32.044Z,2.10
2017-10-12T06:31:59.614Z,2.50
2017-10-12T06:34:27.498Z,2.50
2017-10-12T06:36:55.493Z,2.10
2017-10-12T06:39:23.161Z,2.80
2017-10-12T06:41:50.705Z,2.10
2017-10-12T06:44:19.059Z,2.00
2017-10-12T06:46:46.627Z,2.03
2017-10-12T06:49:14.241Z,2.70
2017-10-12T06:51:41.810Z,2.00
2017-10-12T06:54:09.381Z,2.37
2017-10-12T06:56:37.742Z,2.27
2017-10-12T06:59:05.306Z,2.23
2017-10-12T07:01:32.959Z,2.40
2017-10-12T07:04:00.515Z,3.73
2017-10-12T07:06:28.108Z,2.50
2017-10-12T07:08:55.658Z,2.10
2017-10-12T07:11:23.240Z,2.20
2017-10-12T07:13:50.920Z,1.77
2017-10-12T07:16:18.599Z,1.87
2017-10-12T07:18:46.148Z,2.50
2017-10-12T07:21:13.696Z,2.40
2017-10-12T07:23:41.552Z,2.37
2017-10-12T07:26:09.139Z,2.30
2017-10-12T07:28:36.732Z,2.40
2017-10-12T07:31:05.050Z,2.80
2017-10-12T07:33:33.988Z,2.43
2017-10-12T07:36:01.659Z,3.30
2017-10-12T07:38:29.281Z,2.00
2017-10-12T07:40:57.610Z,2.07
2017-10-12T07:43:25.161Z,1.87
2017-10-12T07:45:52.670Z,2.00
2017-10-12T07:48:20.225Z,2.37
2017-10-12T07:50:47.794Z,2.20
2017-10-12T07:53:15.295Z,2.40
2017-10-12T07:55:43.400Z,1.87
2017-10-12T07:58:10.964Z,2.20
2017-10-12T08:00:38.550Z,2.50
2017-10-12T08:03:06.055Z,2.90
2017-10-12T08:05:33.593Z,1.80
2017-10-12T08:08:01.108Z,2.37
2017-10-12T08:10:28.641Z,2.63
2017-10-12T08:12:57.005Z,1.87
2017-10-12T08:15:24.661Z,2.70
2017-10-12T08:17:53.141Z,2.20
2017-10-12T08:20:20.642Z,2.07
2017-10-12T08:22:48.177Z,3.10
2017-10-12T08:25:15.752Z,2.23
2017-10-12T08:27:43.289Z,2.90
2017-10-12T08:30:10.795Z,2.30
2017-10-12T08:32:38.325Z,2.50
2017-10-12T08:35:05.821Z,2.30
2017-10-12T08:37:34.132Z,3.27
2017-10-12T08:40:01.632Z,2.27
2017-10-12T08:42:29.174Z,2.07
2017-10-12T08:44:56.679Z,2.10
2017-10-12T08:47:24.231Z,3.20
2017-10-12T08:49:51.809Z,2.80
2017-10-12T08:52:19.357Z,2.13
2017-10-12T08:54:46.866Z,2.10
2017-10-12T08:57:14.434Z,2.87
2017-10-12T08:59:42.739Z,2.93
2017-10-12T09:02:10.266Z,2.40
2017-10-12T09:04:37.806Z,2.43
2017-10-12T09:07:06.066Z,2.27
2017-10-12T09:09:33.635Z,1.80
2017-10-12T09:12:01.129Z,2.10
2017-10-12T09:14:28.659Z,2.00
2017-10-12T09:16:56.162Z,1.90
2017-10-12T09:19:23.693Z,2.00
2017-10-12T09:21:51.185Z,2.57
2017-10-12T09:24:18.739Z,2.60
2017-10-12T09:26:46.241Z,2.40
2017-10-12T09:29:13.736Z,2.03
2017-10-12T09:31:41.273Z,2.40
2017-10-12T09:34:08.779Z,2.10
2017-10-12T09:36:37.134Z,2.00
2017-10-12T09:39:04.622Z,2.33
2017-10-12T09:41:32.535Z,2.13
2017-10-12T09:44:00.158Z,1.93
2017-10-12T09:46:27.699Z,2.40
2017-10-12T09:48:55.194Z,2.00
2017-10-12T09:51:22.772Z,1.80
2017-10-12T09:53:50.269Z,1.93
2017-10-12T09:56:17.820Z,2.00
2017-10-12T09:58:45.328Z,2.00
2017-10-12T10:01:12.822Z,1.60
2017-10-12T10:03:40.386Z,1.60
2017-10-12T10:06:07.881Z,1.67
2017-10-12T10:08:35.627Z,1.63
2017-10-12T10:11:03.900Z,1.97
2017-10-12T10:13:31.427Z,2.17
2017-10-12T10:15:59.001Z,2.23
2017-10-12T10:18:26.546Z,2.00
2017-10-12T10:20:54.060Z,1.87
2017-10-12T10:23:21.602Z,2.10
2017-10-12T10:25:49.110Z,1.97
2017-10-12T10:28:16.669Z,1.70
2017-10-12T10:30:44.171Z,1.70
2017-10-12T10:33:11.672Z,2.07
2017-10-12T10:35:40.021Z,2.30
2017-10-12T10:38:07.527Z,2.10
2017-10-12T10:40:35.829Z,2.07
2017-10-12T10:43:03.377Z,1.93
2017-10-12T10:45:31.395Z,2.10
2017-10-12T10:47:58.898Z,1.50
2017-10-12T10:50:26.429Z,1.77
2017-10-12T10:52:53.923Z,2.83
2017-10-12T10:55:21.492Z,2.07
2017-10-12T10:57:49.005Z,2.20
2017-10-12T11:00:16.557Z,1.93
2017-10-12T11:02:44.245Z,1.70
2017-10-12T11:05:11.809Z,1.70
2017-10-12T11:07:39.446Z,2.20
2017-10-12T11:10:07.050Z,2.17
2017-10-12T11:12:34.656Z,1.80
2017-10-12T11:15:02.250Z,2.50
2017-10-12T11:17:29.857Z,2.00
2017-10-12T11:19:57.368Z,2.20
2017-10-12T11:22:24.895Z,1.93
2017-10-12T11:24:52.496Z,2.20
2017-10-12T11:27:19.994Z,2.70
2017-10-12T11:29:48.385Z,2.30
2017-10-12T11:32:15.887Z,2.20
2017-10-12T11:34:43.449Z,2.33
2017-10-12T11:37:10.970Z,2.07
2017-10-12T11:39:38.725Z,1.97
2017-10-12T11:42:06.386Z,2.00
2017-10-12T11:44:34.096Z,1.83
2017-10-12T11:47:01.626Z,2.20
2017-10-12T11:49:29.122Z,2.37
2017-10-12T11:51:56.650Z,2.00
2017-10-12T11:54:24.921Z,2.00
2017-10-12T11:56:52.450Z,2.10
2017-10-12T11:59:19.943Z,2.27
2017-10-12T12:01:47.490Z,2.00
2017-10-12T12:04:14.994Z,2.53
2017-10-12T12:06:42.494Z,1.67
2017-10-12T12:09:10.790Z,2.20
2017-10-12T12:11:38.530Z,1.90
2017-10-12T12:14:06.057Z,1.80
2017-10-12T12:16:33.571Z,1.73
2017-10-12T12:19:01.112Z,1.20
2017-10-12T12:21:28.623Z,2.20
2017-10-12T12:23:56.189Z,3.00
2017-10-12T12:26:23.677Z,1.87
2017-10-12T12:28:51.185Z,1.63
2017-10-12T12:31:18.715Z,2.13
2017-10-12T12:33:46.226Z,1.87
2017-10-12T12:36:13.754Z,1.80
2017-10-12T12:38:41.279Z,1.40
2017-10-12T12:41:08.820Z,2.20
2017-10-12T12:43:37.121Z,2.47
2017-10-12T12:46:05.430Z,2.20
2017-10-12T12:48:32.929Z,1.77
2017-10-12T12:51:00.434Z,2.37
2017-10-12T12:53:27.958Z,2.10
2017-10-12T12:55:55.469Z,1.57
2017-10-12T12:58:23.002Z,1.80
2017-10-12T13:00:50.501Z,1.83
2017-10-12T13:03:18.042Z,2.30
2017-10-12T13:05:45.547Z,2.17
2017-10-12T13:08:13.081Z,1.93
2017-10-12T13:10:40.573Z,1.80
2017-10-12T13:13:08.302Z,2.47
2017-10-12T13:15:36.562Z,1.50
2017-10-12T13:18:04.107Z,1.80
2017-10-12T13:20:31.654Z,1.40
2017-10-12T13:22:59.158Z,1.20
2017-10-12T13:25:27.460Z,1.37
2017-10-12T13:27:54.967Z,1.30
2017-10-12T13:30:23.277Z,1.50
2017-10-12T13:32:50.777Z,1.53
2017-10-12T13:35:18.270Z,1.40
2017-10-12T13:37:45.990Z,1.90
2017-10-12T13:40:23.406Z,1.70
2017-10-12T13:42:51.193Z,1.60
2017-10-12T13:45:18.788Z,1.73
2017-10-12T13:47:46.325Z,2.47
2017-10-12T13:50:13.835Z,1.87
2017-10-12T13:52:41.373Z,1.97
2017-10-12T13:55:08.886Z,1.47
2017-10-12T13:57:36.427Z,1.77
2017-10-12T14:00:03.942Z,1.40
2017-10-12T14:02:31.498Z,18.10
2017-10-12T14:04:59.007Z,5.77
2017-10-12T14:07:26.552Z,2.20
2017-10-12T14:09:54.045Z,1.90
2017-10-12T14:12:22.309Z,1.93
2017-10-12T14:14:49.866Z,1.50
2017-10-12T14:17:17.362Z,2.03
2017-10-12T14:19:44.898Z,1.90
2017-10-12T14:22:12.482Z,1.87
2017-10-12T14:24:40.060Z,1.70
2017-10-12T14:27:07.562Z,1.70
2017-10-12T14:29:35.870Z,1.93
2017-10-12T14:32:03.373Z,2.27
2017-10-12T14:34:30.910Z,1.67
2017-10-12T14:36:58.398Z,1.90
2017-10-12T14:39:25.904Z,1.70
2017-10-12T14:41:53.443Z,1.93
2017-10-12T14:44:21.707Z,1.20
2017-10-12T14:46:49.338Z,2.17
2017-10-12T14:49:16.846Z,1.90
2017-10-12T14:51:45.180Z,1.77
2017-10-12T14:54:12.673Z,1.93
2017-10-12T14:56:40.216Z,1.67
2017-10-12T14:59:07.726Z,2.33
2017-10-12T15:01:35.285Z,1.47
2017-10-12T15:04:02.792Z,1.70
2017-10-12T15:06:31.081Z,1.67
2017-10-12T15:08:59.364Z,1.57
2017-10-12T15:11:27.684Z,1.70
2017-10-12T15:13:55.178Z,1.90
2017-10-12T15:16:22.681Z,2.70
2017-10-12T15:18:51.486Z,2.23
2017-10-12T15:21:19.000Z,1.67
2017-10-12T15:23:46.535Z,2.00
2017-10-12T15:26:14.077Z,1.90
2017-10-12T15:28:41.644Z,2.63
2017-10-12T15:31:09.141Z,1.70
2017-10-12T15:33:36.678Z,1.47
2017-10-12T15:36:04.205Z,2.17
2017-10-12T15:38:32.639Z,1.93
2017-10-12T15:41:00.150Z,2.40
2017-10-12T15:43:27.641Z,2.90
2017-10-12T15:45:55.942Z,2.03
2017-10-12T15:48:24.202Z,2.03
2017-10-12T15:50:51.750Z,2.40
2017-10-12T15:53:19.264Z,2.13
2017-10-12T15:55:47.565Z,2.67
2017-10-12T15:58:15.841Z,1.77
2017-10-12T16:00:43.373Z,2.03
2017-10-12T16:03:11.165Z,1.70
2017-10-12T16:05:38.732Z,2.33
2017-10-12T16:08:06.234Z,2.03
2017-10-12T16:10:34.493Z,2.00
2017-10-12T16:13:02.812Z,2.13
2017-10-12T16:15:30.447Z,2.17
2017-10-12T16:17:58.287Z,1.80
2017-10-12T16:20:26.554Z,2.40
2017-10-12T16:25:22.410Z,2.67
2017-10-12T16:27:49.954Z,1.90
2017-10-12T16:30:17.466Z,2.10
2017-10-12T16:35:12.522Z,1.80
2017-10-12T16:37:40.085Z,2.60
2017-10-12T16:40:08.384Z,2.50
2017-10-12T16:42:35.883Z,2.70
2017-10-12T16:45:03.422Z,3.00
2017-10-12T16:47:31.694Z,2.00
2017-10-12T16:49:59.241Z,2.50
2017-10-12T16:52:26.751Z,1.73
2017-10-12T16:54:55.076Z,2.77
2017-10-12T16:57:22.577Z,2.53
2017-10-12T16:59:50.090Z,1.63
2017-10-12T17:02:18.398Z,2.67
2017-10-12T17:04:45.897Z,1.80
2017-10-12T17:07:13.474Z,2.23
2017-10-12T17:09:40.974Z,2.50
2017-10-12T17:12:08.508Z,1.77
2017-10-12T17:14:36.012Z,2.83
2017-10-12T17:17:03.560Z,2.43
2017-10-12T17:19:31.058Z,2.70
2017-10-12T17:21:58.570Z,3.30
2017-10-12T17:24:26.146Z,3.60
2017-10-12T17:26:53.638Z,2.83
2017-10-12T17:29:21.178Z,3.30
2017-10-12T17:31:48.686Z,3.20
2017-10-12T17:34:16.230Z,3.40
2017-10-12T17:36:49.691Z,3.60
2017-10-12T17:39:17.939Z,4.30
2017-10-12T17:41:45.554Z,5.07
2017-10-12T17:44:13.180Z,6.23
2017-10-12T17:46:40.700Z,5.27
2017-10-12T17:49:08.350Z,5.67
2017-10-12T17:51:35.908Z,5.77
2017-10-12T17:56:31.162Z,4.63
2017-10-12T17:58:58.767Z,3.80
2017-10-12T18:01:26.279Z,3.30
2017-10-12T18:03:53.867Z,3.43
2017-10-12T18:06:21.424Z,4.20
2017-10-12T18:08:49.780Z,3.30
2017-10-12T18:11:17.331Z,2.90
2017-10-12T18:13:44.829Z,3.57
2017-10-12T18:16:12.422Z,3.33
2017-10-12T18:18:39.925Z,3.33
2017-10-12T18:21:07.475Z,3.17
2017-10-12T18:23:35.016Z,5.47
2017-10-12T18:26:02.557Z,4.20
2017-10-12T18:28:30.075Z,3.60
2017-10-12T18:30:58.755Z,4.07
2017-10-12T18:33:26.258Z,3.73
2017-10-12T18:35:53.756Z,3.50
2017-10-12T18:38:21.315Z,3.17
2017-10-12T18:40:50.070Z,4.47
2017-10-12T18:43:17.674Z,3.13
2017-10-12T18:45:45.212Z,3.60
2017-10-12T18:48:19.613Z,3.97
2017-10-12T18:50:47.271Z,4.93
2017-10-12T18:53:14.897Z,3.57
2017-10-12T18:55:42.559Z,4.47
2017-10-12T18:58:10.153Z,3.83
2017-10-12T19:00:37.744Z,5.70
2017-10-12T19:03:05.291Z,4.10
2017-10-12T19:05:32.792Z,4.10
2017-10-12T19:08:00.458Z,5.30
2017-10-12T19:10:27.974Z,4.87
2017-10-12T19:12:57.435Z,5.27
2017-10-12T19:15:25.813Z,5.33
2017-10-12T19:17:53.328Z,5.77
2017-10-12T19:20:20.912Z,5.40
2017-10-12T19:22:48.443Z,6.33
2017-10-12T19:25:16.020Z,5.30
2017-10-12T19:27:43.599Z,5.63
2017-10-12T19:30:11.914Z,5.73
2017-10-12T19:32:39.412Z,5.20
2017-10-12T19:35:06.981Z,5.60
2017-10-12T19:37:34.571Z,4.83
2017-10-12T19:40:02.075Z,5.60
2017-10-12T19:42:30.373Z,4.87
2017-10-12T19:44:57.894Z,4.50
2017-10-12T19:47:25.444Z,4.90
2017-10-12T19:49:52.945Z,6.00
2017-10-12T19:52:20.496Z,5.43
2017-10-12T19:54:48.011Z,5.07
2017-10-12T19:57:15.617Z,7.30
2017-10-12T19:59:43.130Z,6.53
2017-10-12T20:02:10.636Z,5.93
2017-10-12T20:04:38.971Z,6.10
2017-10-12T20:07:06.538Z,6.50
2017-10-12T20:09:34.094Z,6.07
2017-10-12T20:12:01.614Z,6.50
2017-10-12T20:14:29.170Z,4.37
2017-10-12T20:16:56.670Z,5.50
2017-10-12T20:19:24.221Z,5.73
2017-10-12T20:21:51.755Z,6.33
2017-10-12T20:26:47.660Z,4.80
2017-10-12T20:31:43.033Z,5.40
2017-10-12T20:34:11.912Z,4.30
2017-10-12T20:36:39.572Z,5.17
2017-10-12T20:41:34.666Z,5.57
2017-10-12T20:44:02.960Z,5.73
2017-10-12T20:46:30.556Z,5.97
2017-10-12T20:48:58.057Z,5.43
2017-10-12T20:51:25.562Z,6.30
2017-10-12T20:53:53.110Z,3.90
2017-10-12T20:56:20.620Z,5.20
2017-10-12T20:58:48.942Z,5.70
2017-10-12T21:01:16.453Z,5.23
2017-10-12T21:03:43.993Z,4.53
2017-10-12T21:06:11.494Z,5.53
2017-10-12T21:08:39.032Z,5.50
2017-10-12T21:11:06.525Z,5.20
2017-10-12T21:13:34.121Z,5.30
2017-10-12T21:16:01.617Z,6.87
2017-10-12T21:18:29.878Z,5.50
2017-10-12T21:20:57.429Z,5.50
2017-10-12T21:23:24.965Z,5.60
2017-10-12T21:25:52.495Z,6.10
2017-10-12T21:28:20.021Z,5.93
2017-10-12T21:30:47.611Z,5.00
2017-10-12T21:33:15.189Z,5.00
2017-10-12T21:35:42.837Z,5.20
2017-10-12T21:38:10.452Z,4.97
2017-10-12T21:40:38.076Z,5.43
2017-10-12T21:43:06.390Z,4.77
2017-10-12T21:45:34.071Z,5.67
2017-10-12T21:48:02.359Z,5.30
2017-10-12T21:50:29.970Z,4.37
2017-10-12T21:52:57.564Z,4.27
2017-10-12T21:55:25.134Z,5.07
2017-10-12T21:57:52.702Z,4.53
2017-10-12T22:00:20.332Z,4.17
2017-10-12T22:02:47.924Z,4.00
2017-10-12T22:05:15.536Z,3.90
2017-10-12T22:07:43.265Z,4.10
2017-10-12T22:10:11.295Z,5.00
2017-10-12T22:12:38.895Z,3.90
2017-10-12T22:15:06.756Z,4.50
2017-10-12T22:17:34.387Z,4.80
2017-10-12T22:20:02.897Z,3.80
2017-10-12T22:22:31.378Z,3.90
2017-10-12T22:24:59.023Z,3.73
2017-10-12T22:27:27.761Z,5.00
2017-10-12T22:29:55.404Z,3.90
2017-10-12T22:32:23.975Z,4.40
2017-10-12T22:34:52.204Z,3.50
2017-10-12T22:37:19.939Z,3.90
2017-10-12T22:39:47.675Z,3.73
2017-10-12T22:42:15.335Z,3.77
2017-10-12T22:44:42.981Z,4.20
2017-10-12T22:47:10.590Z,3.70
2017-10-12T22:49:38.294Z,3.90
2017-10-12T22:52:06.557Z,4.10
2017-10-12T22:54:34.173Z,4.57
2017-10-12T22:57:01.734Z,3.93
2017-10-12T22:59:29.273Z,3.50
2017-10-12T23:01:56.817Z,3.10
2017-10-12T23:04:24.353Z,2.90
2017-10-12T23:06:51.867Z,3.70
2017-10-12T23:09:19.557Z,3.70
2017-10-12T23:11:47.077Z,3.73
2017-10-12T23:14:14.641Z,4.17
2017-10-12T23:16:42.942Z,3.00
2017-10-12T23:19:10.445Z,3.57
2017-10-12T23:21:38.059Z,3.07
2017-10-12T23:24:06.338Z,3.73
2017-10-12T23:26:33.881Z,4.00
2017-10-12T23:29:01.397Z,4.07
2017-10-12T23:31:29.722Z,2.90
2017-10-12T23:33:57.230Z,3.50
2017-10-12T23:36:24.741Z,3.53
2017-10-12T23:38:52.274Z,3.77
2017-10-12T23:41:19.772Z,3.60
2017-10-12T23:43:47.330Z,3.70
2017-10-12T23:46:14.831Z,3.10
2017-10-12T23:48:42.369Z,4.00
2017-10-12T23:51:09.872Z,3.33
2017-10-12T23:53:38.170Z,3.30
2017-10-12T23:56:05.674Z,3.20
2017-10-12T23:58:33.205Z,3.90
